sensor_id;sensor_type;location;lat;lon;timestamp;P1;durP1;ratioP1;P2;durP2;ratioP2
13040;SDS011;6587;42.728;23.288;2024-02-26T00:02:06;55.00;;;29.20;;
13040;SDS011;6587;42.728;23.288;2024-02-26T00:04:34;43.57;;;24.60;;
13040;SDS011;6587;42.728;23.288;2024-02-26T00:07:01;46.93;;;24.40;;
13040;SDS011;6587;42.728;23.288;2024-02-26T00:09:28;38.13;;;22.80;;
13040;SDS011;6587;42.728;23.288;2024-02-26T00:11:55;46.77;;;26.60;;
13040;SDS011;6587;42.728;23.288;2024-02-26T00:14:23;42.30;;;25.07;;
13040;SDS011;6587;42.728;23.288;2024-02-26T00:16:49;40.83;;;22.97;;
13040;SDS011;6587;42.728;23.288;2024-02-26T00:19:16;45.40;;;24.30;;
13040;SDS011;6587;42.728;23.288;2024-02-26T00:21:44;40.50;;;23.30;;
13040;SDS011;6587;42.728;23.288;2024-02-26T00:24:11;39.20;;;22.20;;
13040;SDS011;6587;42.728;23.288;2024-02-26T00:26:38;41.80;;;24.30;;
13040;SDS011;6587;42.728;23.288;2024-02-26T00:29:05;42.77;;;24.90;;
13040;SDS011;6587;42.728;23.288;2024-02-26T00:31:32;41.07;;;25.37;;
13040;SDS011;6587;42.728;23.288;2024-02-26T00:33:59;43.30;;;25.60;;
13040;SDS011;6587;42.728;23.288;2024-02-26T00:36:26;40.20;;;25.73;;
13040;SDS011;6587;42.728;23.288;2024-02-26T00:38:55;42.97;;;24.27;;
13040;SDS011;6587;42.728;23.288;2024-02-26T00:41:22;46.10;;;26.13;;
13040;SDS011;6587;42.728;23.288;2024-02-26T00:43:49;45.47;;;26.13;;
13040;SDS011;6587;42.728;23.288;2024-02-26T00:46:15;38.80;;;23.87;;
13040;SDS011;6587;42.728;23.288;2024-02-26T00:48:43;43.83;;;26.40;;
13040;SDS011;6587;42.728;23.288;2024-02-26T00:51:09;50.97;;;26.57;;
13040;SDS011;6587;42.728;23.288;2024-02-26T00:53:36;45.43;;;24.43;;
13040;SDS011;6587;42.728;23.288;2024-02-26T00:56:05;42.80;;;25.60;;
13040;SDS011;6587;42.728;23.288;2024-02-26T00:58:32;48.03;;;26.87;;
13040;SDS011;6587;42.728;23.288;2024-02-26T01:00:59;49.30;;;28.37;;
13040;SDS011;6587;42.728;23.288;2024-02-26T01:03:26;48.53;;;27.87;;
13040;SDS011;6587;42.728;23.288;2024-02-26T01:05:53;39.93;;;24.13;;
13040;SDS011;6587;42.728;23.288;2024-02-26T01:08:19;43.33;;;22.93;;
13040;SDS011;6587;42.728;23.288;2024-02-26T01:10:46;41.13;;;23.70;;
13040;SDS011;6587;42.728;23.288;2024-02-26T01:13:14;41.60;;;23.77;;
13040;SDS011;6587;42.728;23.288;2024-02-26T01:15:41;46.93;;;22.50;;
13040;SDS011;6587;42.728;23.288;2024-02-26T01:18:09;39.27;;;21.93;;
13040;SDS011;6587;42.728;23.288;2024-02-26T01:20:35;41.23;;;23.17;;
13040;SDS011;6587;42.728;23.288;2024-02-26T01:23:03;41.27;;;22.67;;
13040;SDS011;6587;42.728;23.288;2024-02-26T01:25:30;44.80;;;24.10;;
13040;SDS011;6587;42.728;23.288;2024-02-26T01:27:57;40.77;;;23.63;;
13040;SDS011;6587;42.728;23.288;2024-02-26T01:30:25;41.97;;;24.17;;
13040;SDS011;6587;42.728;23.288;2024-02-26T01:32:52;46.80;;;24.37;;
13040;SDS011;6587;42.728;23.288;2024-02-26T01:35:18;47.67;;;24.90;;
13040;SDS011;6587;42.728;23.288;2024-02-26T01:37:45;43.73;;;23.80;;
13040;SDS011;6587;42.728;23.288;2024-02-26T01:40:12;46.73;;;24.77;;
13040;SDS011;6587;42.728;23.288;2024-02-26T01:42:43;48.33;;;25.43;;
13040;SDS011;6587;42.728;23.288;2024-02-26T01:45:12;39.80;;;23.60;;
13040;SDS011;6587;42.728;23.288;2024-02-26T01:47:48;40.93;;;24.87;;
13040;SDS011;6587;42.728;23.288;2024-02-26T01:50:16;45.80;;;26.33;;
13040;SDS011;6587;42.728;23.288;2024-02-26T01:52:44;50.50;;;26.63;;
13040;SDS011;6587;42.728;23.288;2024-02-26T01:55:12;48.57;;;28.17;;
13040;SDS011;6587;42.728;23.288;2024-02-26T01:57:40;46.47;;;27.13;;
13040;SDS011;6587;42.728;23.288;2024-02-26T02:00:09;46.90;;;26.37;;
13040;SDS011;6587;42.728;23.288;2024-02-26T02:02:36;48.17;;;26.90;;
13040;SDS011;6587;42.728;23.288;2024-02-26T02:05:08;44.23;;;26.90;;
13040;SDS011;6587;42.728;23.288;2024-02-26T02:07:36;50.43;;;26.90;;
13040;SDS011;6587;42.728;23.288;2024-02-26T02:10:03;42.63;;;24.87;;
13040;SDS011;6587;42.728;23.288;2024-02-26T02:12:32;39.73;;;23.87;;
13040;SDS011;6587;42.728;23.288;2024-02-26T02:14:59;41.63;;;22.93;;
13040;SDS011;6587;42.728;23.288;2024-02-26T02:17:27;38.97;;;22.63;;
13040;SDS011;6587;42.728;23.288;2024-02-26T02:19:54;40.17;;;22.87;;
13040;SDS011;6587;42.728;23.288;2024-02-26T02:22:22;39.60;;;22.97;;
13040;SDS011;6587;42.728;23.288;2024-02-26T02:24:49;45.00;;;24.03;;
13040;SDS011;6587;42.728;23.288;2024-02-26T02:27:18;43.77;;;25.47;;
13040;SDS011;6587;42.728;23.288;2024-02-26T02:29:45;42.63;;;23.47;;
13040;SDS011;6587;42.728;23.288;2024-02-26T02:32:13;45.67;;;25.20;;
13040;SDS011;6587;42.728;23.288;2024-02-26T02:34:41;49.53;;;27.80;;
13040;SDS011;6587;42.728;23.288;2024-02-26T02:37:07;39.97;;;22.90;;
13040;SDS011;6587;42.728;23.288;2024-02-26T02:39:36;38.03;;;21.57;;
13040;SDS011;6587;42.728;23.288;2024-02-26T02:42:03;41.67;;;23.27;;
13040;SDS011;6587;42.728;23.288;2024-02-26T02:44:31;39.93;;;22.53;;
13040;SDS011;6587;42.728;23.288;2024-02-26T02:46:58;42.43;;;23.37;;
13040;SDS011;6587;42.728;23.288;2024-02-26T02:49:25;42.87;;;24.73;;
13040;SDS011;6587;42.728;23.288;2024-02-26T02:51:51;40.20;;;24.80;;
13040;SDS011;6587;42.728;23.288;2024-02-26T02:54:19;45.57;;;26.60;;
13040;SDS011;6587;42.728;23.288;2024-02-26T02:56:47;43.93;;;25.47;;
13040;SDS011;6587;42.728;23.288;2024-02-26T02:59:14;45.07;;;26.00;;
13040;SDS011;6587;42.728;23.288;2024-02-26T03:01:41;40.13;;;24.97;;
13040;SDS011;6587;42.728;23.288;2024-02-26T03:04:08;48.70;;;25.40;;
13040;SDS011;6587;42.728;23.288;2024-02-26T03:06:34;44.30;;;24.53;;
13040;SDS011;6587;42.728;23.288;2024-02-26T03:09:01;39.70;;;22.90;;
13040;SDS011;6587;42.728;23.288;2024-02-26T03:11:28;42.30;;;22.43;;
13040;SDS011;6587;42.728;23.288;2024-02-26T03:13:56;39.37;;;22.67;;
13040;SDS011;6587;42.728;23.288;2024-02-26T03:16:23;44.00;;;22.77;;
13040;SDS011;6587;42.728;23.288;2024-02-26T03:18:50;39.30;;;22.67;;
13040;SDS011;6587;42.728;23.288;2024-02-26T03:21:17;40.80;;;24.70;;
13040;SDS011;6587;42.728;23.288;2024-02-26T03:23:44;39.27;;;22.83;;
13040;SDS011;6587;42.728;23.288;2024-02-26T03:26:11;40.63;;;23.40;;
13040;SDS011;6587;42.728;23.288;2024-02-26T03:28:39;41.60;;;22.80;;
13040;SDS011;6587;42.728;23.288;2024-02-26T03:31:08;38.50;;;22.30;;
13040;SDS011;6587;42.728;23.288;2024-02-26T03:33:35;39.77;;;23.07;;
13040;SDS011;6587;42.728;23.288;2024-02-26T03:36:03;39.87;;;23.73;;
13040;SDS011;6587;42.728;23.288;2024-02-26T03:38:30;40.23;;;22.70;;
13040;SDS011;6587;42.728;23.288;2024-02-26T03:40:57;41.20;;;23.60;;
13040;SDS011;6587;42.728;23.288;2024-02-26T03:43:24;37.17;;;23.40;;
13040;SDS011;6587;42.728;23.288;2024-02-26T03:45:50;39.80;;;25.13;;
13040;SDS011;6587;42.728;23.288;2024-02-26T03:48:19;47.27;;;28.10;;
13040;SDS011;6587;42.728;23.288;2024-02-26T03:50:46;44.93;;;26.50;;
13040;SDS011;6587;42.728;23.288;2024-02-26T03:53:12;52.17;;;29.30;;
13040;SDS011;6587;42.728;23.288;2024-02-26T03:55:39;49.10;;;28.47;;
13040;SDS011;6587;42.728;23.288;2024-02-26T03:58:07;48.37;;;28.17;;
13040;SDS011;6587;42.728;23.288;2024-02-26T04:00:34;47.43;;;29.13;;
13040;SDS011;6587;42.728;23.288;2024-02-26T04:03:00;56.70;;;31.97;;
13040;SDS011;6587;42.728;23.288;2024-02-26T04:05:29;56.33;;;31.03;;
13040;SDS011;6587;42.728;23.288;2024-02-26T04:07:55;61.70;;;33.10;;
13040;SDS011;6587;42.728;23.288;2024-02-26T04:10:22;64.90;;;36.00;;
13040;SDS011;6587;42.728;23.288;2024-02-26T04:12:49;66.80;;;35.30;;
13040;SDS011;6587;42.728;23.288;2024-02-26T04:15:16;62.37;;;34.60;;
13040;SDS011;6587;42.728;23.288;2024-02-26T04:17:43;60.97;;;34.67;;
13040;SDS011;6587;42.728;23.288;2024-02-26T04:20:12;58.20;;;32.97;;
13040;SDS011;6587;42.728;23.288;2024-02-26T04:22:42;58.60;;;31.10;;
13040;SDS011;6587;42.728;23.288;2024-02-26T04:25:09;58.00;;;33.03;;
13040;SDS011;6587;42.728;23.288;2024-02-26T04:27:36;56.63;;;30.57;;
13040;SDS011;6587;42.728;23.288;2024-02-26T04:30:04;56.73;;;30.90;;
13040;SDS011;6587;42.728;23.288;2024-02-26T04:32:31;55.60;;;29.83;;
13040;SDS011;6587;42.728;23.288;2024-02-26T04:34:59;56.30;;;30.90;;
13040;SDS011;6587;42.728;23.288;2024-02-26T04:37:26;55.23;;;32.10;;
13040;SDS011;6587;42.728;23.288;2024-02-26T04:39:58;52.93;;;29.83;;
13040;SDS011;6587;42.728;23.288;2024-02-26T04:42:25;48.10;;;28.07;;
13040;SDS011;6587;42.728;23.288;2024-02-26T04:44:52;43.03;;;24.83;;
13040;SDS011;6587;42.728;23.288;2024-02-26T04:47:19;42.77;;;23.03;;
13040;SDS011;6587;42.728;23.288;2024-02-26T04:49:47;46.87;;;23.53;;
13040;SDS011;6587;42.728;23.288;2024-02-26T04:52:14;50.63;;;26.60;;
13040;SDS011;6587;42.728;23.288;2024-02-26T04:54:41;49.27;;;24.30;;
13040;SDS011;6587;42.728;23.288;2024-02-26T04:57:09;39.17;;;22.97;;
13040;SDS011;6587;42.728;23.288;2024-02-26T04:59:36;38.80;;;21.67;;
13040;SDS011;6587;42.728;23.288;2024-02-26T05:02:03;37.00;;;19.73;;
13040;SDS011;6587;42.728;23.288;2024-02-26T05:04:30;34.67;;;19.60;;
13040;SDS011;6587;42.728;23.288;2024-02-26T05:06:56;37.60;;;20.63;;
13040;SDS011;6587;42.728;23.288;2024-02-26T05:09:23;36.93;;;21.67;;
13040;SDS011;6587;42.728;23.288;2024-02-26T05:11:50;42.07;;;21.17;;
13040;SDS011;6587;42.728;23.288;2024-02-26T05:14:18;32.63;;;18.23;;
13040;SDS011;6587;42.728;23.288;2024-02-26T05:16:45;37.40;;;20.67;;
13040;SDS011;6587;42.728;23.288;2024-02-26T05:19:12;32.67;;;19.23;;
13040;SDS011;6587;42.728;23.288;2024-02-26T05:21:39;35.63;;;19.93;;
13040;SDS011;6587;42.728;23.288;2024-02-26T05:24:07;39.53;;;20.70;;
13040;SDS011;6587;42.728;23.288;2024-02-26T05:26:34;44.57;;;21.47;;
13040;SDS011;6587;42.728;23.288;2024-02-26T05:29:01;39.27;;;20.77;;
13040;SDS011;6587;42.728;23.288;2024-02-26T05:31:29;35.90;;;20.53;;
13040;SDS011;6587;42.728;23.288;2024-02-26T05:33:56;35.37;;;21.33;;
13040;SDS011;6587;42.728;23.288;2024-02-26T05:36:23;45.97;;;26.57;;
13040;SDS011;6587;42.728;23.288;2024-02-26T05:38:51;48.50;;;27.37;;
13040;SDS011;6587;42.728;23.288;2024-02-26T05:41:17;58.20;;;31.57;;
13040;SDS011;6587;42.728;23.288;2024-02-26T05:43:48;54.67;;;27.70;;
13040;SDS011;6587;42.728;23.288;2024-02-26T05:46:16;53.77;;;33.93;;
13040;SDS011;6587;42.728;23.288;2024-02-26T05:48:44;48.17;;;28.67;;
13040;SDS011;6587;42.728;23.288;2024-02-26T05:51:11;46.20;;;28.67;;
13040;SDS011;6587;42.728;23.288;2024-02-26T05:53:38;41.33;;;26.17;;
13040;SDS011;6587;42.728;23.288;2024-02-26T05:56:05;42.70;;;25.83;;
13040;SDS011;6587;42.728;23.288;2024-02-26T05:58:32;52.80;;;28.23;;
13040;SDS011;6587;42.728;23.288;2024-02-26T06:00:59;49.13;;;30.23;;
13040;SDS011;6587;42.728;23.288;2024-02-26T06:03:26;59.83;;;33.47;;
13040;SDS011;6587;42.728;23.288;2024-02-26T06:05:54;62.33;;;35.07;;
13040;SDS011;6587;42.728;23.288;2024-02-26T06:08:21;81.27;;;41.90;;
13040;SDS011;6587;42.728;23.288;2024-02-26T06:10:48;75.33;;;41.13;;
13040;SDS011;6587;42.728;23.288;2024-02-26T06:13:15;88.40;;;48.43;;
13040;SDS011;6587;42.728;23.288;2024-02-26T06:15:41;107.40;;;60.80;;
13040;SDS011;6587;42.728;23.288;2024-02-26T06:18:08;104.27;;;52.40;;
13040;SDS011;6587;42.728;23.288;2024-02-26T06:20:35;129.40;;;62.53;;
13040;SDS011;6587;42.728;23.288;2024-02-26T06:23:03;118.83;;;58.17;;
13040;SDS011;6587;42.728;23.288;2024-02-26T06:25:30;96.00;;;50.67;;
13040;SDS011;6587;42.728;23.288;2024-02-26T06:27:57;86.07;;;45.83;;
13040;SDS011;6587;42.728;23.288;2024-02-26T06:30:24;89.30;;;45.37;;
13040;SDS011;6587;42.728;23.288;2024-02-26T06:32:51;77.90;;;41.50;;
13040;SDS011;6587;42.728;23.288;2024-02-26T06:35:17;64.83;;;33.53;;
13040;SDS011;6587;42.728;23.288;2024-02-26T06:37:44;61.67;;;33.23;;
13040;SDS011;6587;42.728;23.288;2024-02-26T06:40:12;65.50;;;36.27;;
13040;SDS011;6587;42.728;23.288;2024-02-26T06:42:39;61.60;;;33.50;;
13040;SDS011;6587;42.728;23.288;2024-02-26T06:45:06;63.33;;;30.63;;
13040;SDS011;6587;42.728;23.288;2024-02-26T06:47:33;53.20;;;26.93;;
13040;SDS011;6587;42.728;23.288;2024-02-26T06:50:00;44.30;;;23.27;;
13040;SDS011;6587;42.728;23.288;2024-02-26T06:52:27;46.10;;;23.20;;
13040;SDS011;6587;42.728;23.288;2024-02-26T06:54:54;42.13;;;22.90;;
13040;SDS011;6587;42.728;23.288;2024-02-26T06:57:22;38.93;;;22.47;;
13040;SDS011;6587;42.728;23.288;2024-02-26T06:59:49;40.20;;;22.60;;
13040;SDS011;6587;42.728;23.288;2024-02-26T07:02:16;40.37;;;24.27;;
13040;SDS011;6587;42.728;23.288;2024-02-26T07:04:44;44.17;;;25.00;;
13040;SDS011;6587;42.728;23.288;2024-02-26T07:07:11;46.83;;;24.73;;
13040;SDS011;6587;42.728;23.288;2024-02-26T07:09:38;43.47;;;25.03;;
13040;SDS011;6587;42.728;23.288;2024-02-26T07:12:08;52.37;;;25.93;;
13040;SDS011;6587;42.728;23.288;2024-02-26T07:14:36;43.80;;;25.10;;
13040;SDS011;6587;42.728;23.288;2024-02-26T07:17:03;42.47;;;23.60;;
13040;SDS011;6587;42.728;23.288;2024-02-26T07:19:30;39.53;;;22.87;;
13040;SDS011;6587;42.728;23.288;2024-02-26T07:21:57;37.23;;;22.40;;
13040;SDS011;6587;42.728;23.288;2024-02-26T07:24:26;41.73;;;22.80;;
13040;SDS011;6587;42.728;23.288;2024-02-26T07:26:53;44.10;;;22.27;;
13040;SDS011;6587;42.728;23.288;2024-02-26T07:29:20;39.87;;;20.90;;
13040;SDS011;6587;42.728;23.288;2024-02-26T07:31:48;36.57;;;22.23;;
13040;SDS011;6587;42.728;23.288;2024-02-26T07:34:15;43.10;;;23.63;;
13040;SDS011;6587;42.728;23.288;2024-02-26T07:36:42;46.83;;;25.50;;
13040;SDS011;6587;42.728;23.288;2024-02-26T07:39:09;43.97;;;24.57;;
13040;SDS011;6587;42.728;23.288;2024-02-26T07:41:36;44.77;;;25.43;;
13040;SDS011;6587;42.728;23.288;2024-02-26T07:44:04;41.23;;;24.13;;
13040;SDS011;6587;42.728;23.288;2024-02-26T07:46:30;40.47;;;22.43;;
13040;SDS011;6587;42.728;23.288;2024-02-26T07:48:59;40.57;;;22.73;;
13040;SDS011;6587;42.728;23.288;2024-02-26T07:51:25;36.93;;;21.97;;
13040;SDS011;6587;42.728;23.288;2024-02-26T07:53:52;38.60;;;21.07;;
13040;SDS011;6587;42.728;23.288;2024-02-26T07:56:19;36.70;;;22.00;;
13040;SDS011;6587;42.728;23.288;2024-02-26T07:58:46;36.50;;;22.03;;
13040;SDS011;6587;42.728;23.288;2024-02-26T08:01:12;41.20;;;22.77;;
13040;SDS011;6587;42.728;23.288;2024-02-26T08:03:40;38.73;;;22.43;;
13040;SDS011;6587;42.728;23.288;2024-02-26T08:06:09;42.10;;;23.80;;
13040;SDS011;6587;42.728;23.288;2024-02-26T08:08:35;43.47;;;23.30;;
13040;SDS011;6587;42.728;23.288;2024-02-26T08:11:03;38.93;;;22.83;;
13040;SDS011;6587;42.728;23.288;2024-02-26T08:13:30;35.00;;;21.77;;
13040;SDS011;6587;42.728;23.288;2024-02-26T08:15:57;33.30;;;22.17;;
13040;SDS011;6587;42.728;23.288;2024-02-26T08:18:24;37.70;;;23.80;;
13040;SDS011;6587;42.728;23.288;2024-02-26T08:20:50;42.37;;;22.70;;
13040;SDS011;6587;42.728;23.288;2024-02-26T08:23:19;41.93;;;23.03;;
13040;SDS011;6587;42.728;23.288;2024-02-26T08:25:45;42.97;;;22.30;;
13040;SDS011;6587;42.728;23.288;2024-02-26T08:28:13;37.27;;;22.20;;
13040;SDS011;6587;42.728;23.288;2024-02-26T08:30:39;39.73;;;23.73;;
13040;SDS011;6587;42.728;23.288;2024-02-26T08:33:06;38.87;;;23.70;;
13040;SDS011;6587;42.728;23.288;2024-02-26T08:35:33;41.03;;;22.67;;
13040;SDS011;6587;42.728;23.288;2024-02-26T08:38:00;39.07;;;22.73;;
13040;SDS011;6587;42.728;23.288;2024-02-26T08:40:28;43.00;;;23.03;;
13040;SDS011;6587;42.728;23.288;2024-02-26T08:42:55;41.37;;;21.97;;
13040;SDS011;6587;42.728;23.288;2024-02-26T08:45:22;36.50;;;22.40;;
13040;SDS011;6587;42.728;23.288;2024-02-26T08:47:49;38.27;;;22.90;;
13040;SDS011;6587;42.728;23.288;2024-02-26T08:50:16;30.50;;;21.33;;
13040;SDS011;6587;42.728;23.288;2024-02-26T08:52:43;37.90;;;22.87;;
13040;SDS011;6587;42.728;23.288;2024-02-26T08:55:13;38.07;;;22.20;;
13040;SDS011;6587;42.728;23.288;2024-02-26T08:57:42;38.83;;;22.73;;
13040;SDS011;6587;42.728;23.288;2024-02-26T09:00:09;35.53;;;22.70;;
13040;SDS011;6587;42.728;23.288;2024-02-26T09:02:37;36.33;;;23.60;;
13040;SDS011;6587;42.728;23.288;2024-02-26T09:05:05;37.93;;;22.40;;
13040;SDS011;6587;42.728;23.288;2024-02-26T09:07:32;34.80;;;22.97;;
13040;SDS011;6587;42.728;23.288;2024-02-26T09:09:59;40.57;;;24.90;;
13040;SDS011;6587;42.728;23.288;2024-02-26T09:12:25;38.63;;;23.30;;
13040;SDS011;6587;42.728;23.288;2024-02-26T09:14:54;36.33;;;23.50;;
13040;SDS011;6587;42.728;23.288;2024-02-26T09:17:22;33.27;;;21.83;;
13040;SDS011;6587;42.728;23.288;2024-02-26T09:19:49;36.80;;;20.73;;
13040;SDS011;6587;42.728;23.288;2024-02-26T09:22:16;37.77;;;20.53;;
13040;SDS011;6587;42.728;23.288;2024-02-26T09:24:43;27.20;;;19.37;;
13040;SDS011;6587;42.728;23.288;2024-02-26T09:27:09;31.33;;;20.47;;
13040;SDS011;6587;42.728;23.288;2024-02-26T09:29:36;31.83;;;18.60;;
13040;SDS011;6587;42.728;23.288;2024-02-26T09:32:04;34.90;;;20.53;;
13040;SDS011;6587;42.728;23.288;2024-02-26T09:34:32;25.17;;;16.77;;
13040;SDS011;6587;42.728;23.288;2024-02-26T09:36:58;26.87;;;17.07;;
13040;SDS011;6587;42.728;23.288;2024-02-26T09:39:25;26.47;;;16.13;;
13040;SDS011;6587;42.728;23.288;2024-02-26T09:41:53;24.80;;;15.20;;
13040;SDS011;6587;42.728;23.288;2024-02-26T09:44:20;17.17;;;12.87;;
13040;SDS011;6587;42.728;23.288;2024-02-26T09:46:47;21.33;;;12.33;;
13040;SDS011;6587;42.728;23.288;2024-02-26T09:49:16;24.10;;;13.67;;
13040;SDS011;6587;42.728;23.288;2024-02-26T09:51:44;18.87;;;12.33;;
13040;SDS011;6587;42.728;23.288;2024-02-26T09:54:13;20.80;;;12.37;;
13040;SDS011;6587;42.728;23.288;2024-02-26T09:56:41;17.57;;;10.80;;
13040;SDS011;6587;42.728;23.288;2024-02-26T09:59:10;14.13;;;9.53;;
13040;SDS011;6587;42.728;23.288;2024-02-26T10:01:43;10.40;;;7.90;;
13040;SDS011;6587;42.728;23.288;2024-02-26T10:04:11;9.73;;;7.77;;
13040;SDS011;6587;42.728;23.288;2024-02-26T10:06:41;11.77;;;8.10;;
13040;SDS011;6587;42.728;23.288;2024-02-26T10:09:09;11.77;;;8.37;;
13040;SDS011;6587;42.728;23.288;2024-02-26T10:11:37;13.27;;;8.03;;
13040;SDS011;6587;42.728;23.288;2024-02-26T10:14:04;10.77;;;7.17;;
13040;SDS011;6587;42.728;23.288;2024-02-26T10:16:32;14.30;;;7.40;;
13040;SDS011;6587;42.728;23.288;2024-02-26T10:18:59;11.47;;;8.10;;
13040;SDS011;6587;42.728;23.288;2024-02-26T10:21:26;14.03;;;8.20;;
13040;SDS011;6587;42.728;23.288;2024-02-26T10:23:54;18.60;;;7.80;;
13040;SDS011;6587;42.728;23.288;2024-02-26T10:26:21;11.83;;;7.37;;
13040;SDS011;6587;42.728;23.288;2024-02-26T10:28:48;9.10;;;6.47;;
13040;SDS011;6587;42.728;23.288;2024-02-26T10:31:15;14.20;;;7.23;;
13040;SDS011;6587;42.728;23.288;2024-02-26T10:33:42;14.70;;;7.50;;
13040;SDS011;6587;42.728;23.288;2024-02-26T10:36:10;14.07;;;7.10;;
13040;SDS011;6587;42.728;23.288;2024-02-26T10:38:37;11.00;;;7.10;;
13040;SDS011;6587;42.728;23.288;2024-02-26T10:41:06;9.43;;;7.10;;
13040;SDS011;6587;42.728;23.288;2024-02-26T10:43:33;13.40;;;6.77;;
13040;SDS011;6587;42.728;23.288;2024-02-26T10:46:00;10.50;;;6.73;;
13040;SDS011;6587;42.728;23.288;2024-02-26T10:48:27;10.63;;;7.20;;
13040;SDS011;6587;42.728;23.288;2024-02-26T10:50:53;8.27;;;6.43;;
13040;SDS011;6587;42.728;23.288;2024-02-26T10:53:22;12.40;;;7.60;;
13040;SDS011;6587;42.728;23.288;2024-02-26T10:55:52;9.27;;;6.33;;
13040;SDS011;6587;42.728;23.288;2024-02-26T10:58:22;7.13;;;5.90;;
13040;SDS011;6587;42.728;23.288;2024-02-26T11:00:50;7.80;;;6.90;;
13040;SDS011;6587;42.728;23.288;2024-02-26T11:03:18;10.43;;;6.27;;
13040;SDS011;6587;42.728;23.288;2024-02-26T11:05:46;9.40;;;6.33;;
13040;SDS011;6587;42.728;23.288;2024-02-26T11:08:13;9.87;;;6.97;;
13040;SDS011;6587;42.728;23.288;2024-02-26T11:10:41;7.73;;;6.37;;
13040;SDS011;6587;42.728;23.288;2024-02-26T11:13:09;7.60;;;6.60;;
13040;SDS011;6587;42.728;23.288;2024-02-26T11:15:41;23.87;;;14.60;;
13040;SDS011;6587;42.728;23.288;2024-02-26T11:18:09;11.53;;;7.50;;
13040;SDS011;6587;42.728;23.288;2024-02-26T11:20:38;7.57;;;5.70;;
13040;SDS011;6587;42.728;23.288;2024-02-26T11:23:07;10.23;;;6.97;;
13040;SDS011;6587;42.728;23.288;2024-02-26T11:25:34;10.07;;;6.50;;
13040;SDS011;6587;42.728;23.288;2024-02-26T11:28:03;7.57;;;5.20;;
13040;SDS011;6587;42.728;23.288;2024-02-26T11:30:33;9.20;;;6.20;;
13040;SDS011;6587;42.728;23.288;2024-02-26T11:33:05;8.97;;;5.10;;
13040;SDS011;6587;42.728;23.288;2024-02-26T11:35:33;5.93;;;4.80;;
13040;SDS011;6587;42.728;23.288;2024-02-26T11:38:00;7.83;;;5.37;;
13040;SDS011;6587;42.728;23.288;2024-02-26T11:40:27;6.60;;;4.87;;
13040;SDS011;6587;42.728;23.288;2024-02-26T11:42:54;11.10;;;6.23;;
13040;SDS011;6587;42.728;23.288;2024-02-26T11:48:22;10.60;;;6.20;;
13040;SDS011;6587;42.728;23.288;2024-02-26T11:50:51;7.07;;;5.67;;
13040;SDS011;6587;42.728;23.288;2024-02-26T11:53:19;8.70;;;5.77;;
13040;SDS011;6587;42.728;23.288;2024-02-26T11:55:46;7.97;;;5.80;;
13040;SDS011;6587;42.728;23.288;2024-02-26T11:58:13;8.73;;;6.10;;
13040;SDS011;6587;42.728;23.288;2024-02-26T12:00:40;8.87;;;5.97;;
13040;SDS011;6587;42.728;23.288;2024-02-26T12:03:07;7.20;;;5.67;;
13040;SDS011;6587;42.728;23.288;2024-02-26T12:05:38;10.63;;;6.93;;
13040;SDS011;6587;42.728;23.288;2024-02-26T12:08:06;12.10;;;5.90;;
13040;SDS011;6587;42.728;23.288;2024-02-26T12:10:35;6.33;;;5.63;;
13040;SDS011;6587;42.728;23.288;2024-02-26T12:13:05;7.37;;;6.13;;
13040;SDS011;6587;42.728;23.288;2024-02-26T12:15:36;8.03;;;6.23;;
13040;SDS011;6587;42.728;23.288;2024-02-26T12:18:04;7.60;;;5.50;;
13040;SDS011;6587;42.728;23.288;2024-02-26T12:20:33;8.40;;;5.53;;
13040;SDS011;6587;42.728;23.288;2024-02-26T12:23:01;8.37;;;5.67;;
13040;SDS011;6587;42.728;23.288;2024-02-26T12:25:29;6.53;;;5.43;;
13040;SDS011;6587;42.728;23.288;2024-02-26T12:27:56;11.30;;;6.20;;
13040;SDS011;6587;42.728;23.288;2024-02-26T12:30:24;10.40;;;6.23;;
13040;SDS011;6587;42.728;23.288;2024-02-26T12:32:52;7.93;;;5.43;;
13040;SDS011;6587;42.728;23.288;2024-02-26T12:35:22;8.73;;;4.97;;
13040;SDS011;6587;42.728;23.288;2024-02-26T12:37:50;7.97;;;5.10;;
13040;SDS011;6587;42.728;23.288;2024-02-26T12:40:18;8.60;;;4.70;;
13040;SDS011;6587;42.728;23.288;2024-02-26T12:42:45;7.50;;;5.23;;
13040;SDS011;6587;42.728;23.288;2024-02-26T12:45:13;7.53;;;5.03;;
13040;SDS011;6587;42.728;23.288;2024-02-26T12:47:41;6.43;;;5.30;;
13040;SDS011;6587;42.728;23.288;2024-02-26T12:50:10;7.53;;;4.57;;
13040;SDS011;6587;42.728;23.288;2024-02-26T12:52:38;5.57;;;4.47;;
13040;SDS011;6587;42.728;23.288;2024-02-26T12:55:07;9.10;;;4.97;;
13040;SDS011;6587;42.728;23.288;2024-02-26T12:57:37;8.00;;;4.70;;
13040;SDS011;6587;42.728;23.288;2024-02-26T13:00:05;6.37;;;4.13;;
13040;SDS011;6587;42.728;23.288;2024-02-26T13:02:34;8.47;;;4.50;;
13040;SDS011;6587;42.728;23.288;2024-02-26T13:05:02;6.37;;;4.60;;
13040;SDS011;6587;42.728;23.288;2024-02-26T13:07:30;11.00;;;5.60;;
13040;SDS011;6587;42.728;23.288;2024-02-26T13:09:57;6.57;;;4.97;;
13040;SDS011;6587;42.728;23.288;2024-02-26T13:12:24;6.87;;;4.87;;
13040;SDS011;6587;42.728;23.288;2024-02-26T13:14:59;8.30;;;5.13;;
13040;SDS011;6587;42.728;23.288;2024-02-26T13:17:26;7.83;;;4.73;;
13040;SDS011;6587;42.728;23.288;2024-02-26T13:19:54;7.27;;;4.37;;
13040;SDS011;6587;42.728;23.288;2024-02-26T13:22:21;6.93;;;4.70;;
13040;SDS011;6587;42.728;23.288;2024-02-26T13:24:55;6.47;;;4.30;;
13040;SDS011;6587;42.728;23.288;2024-02-26T13:27:22;7.10;;;4.30;;
13040;SDS011;6587;42.728;23.288;2024-02-26T13:29:50;5.63;;;4.30;;
13040;SDS011;6587;42.728;23.288;2024-02-26T13:32:31;7.10;;;4.50;;
13040;SDS011;6587;42.728;23.288;2024-02-26T13:35:05;5.83;;;4.67;;
13040;SDS011;6587;42.728;23.288;2024-02-26T13:37:33;9.43;;;4.67;;
13040;SDS011;6587;42.728;23.288;2024-02-26T13:40:00;6.27;;;5.17;;
13040;SDS011;6587;42.728;23.288;2024-02-26T13:42:30;6.67;;;5.07;;
13040;SDS011;6587;42.728;23.288;2024-02-26T13:44:57;6.37;;;4.83;;
13040;SDS011;6587;42.728;23.288;2024-02-26T13:47:25;6.13;;;4.73;;
13040;SDS011;6587;42.728;23.288;2024-02-26T13:49:52;8.50;;;4.83;;
13040;SDS011;6587;42.728;23.288;2024-02-26T13:52:19;7.27;;;4.60;;
13040;SDS011;6587;42.728;23.288;2024-02-26T13:54:46;6.20;;;4.47;;
13040;SDS011;6587;42.728;23.288;2024-02-26T13:57:13;5.13;;;4.20;;
13040;SDS011;6587;42.728;23.288;2024-02-26T13:59:40;6.80;;;4.80;;
13040;SDS011;6587;42.728;23.288;2024-02-26T14:02:07;5.87;;;4.80;;
13040;SDS011;6587;42.728;23.288;2024-02-26T14:04:35;6.53;;;4.80;;
13040;SDS011;6587;42.728;23.288;2024-02-26T14:07:02;6.93;;;4.87;;
13040;SDS011;6587;42.728;23.288;2024-02-26T14:09:29;8.40;;;4.80;;
13040;SDS011;6587;42.728;23.288;2024-02-26T14:11:57;7.90;;;4.53;;
13040;SDS011;6587;42.728;23.288;2024-02-26T14:14:24;5.63;;;4.20;;
13040;SDS011;6587;42.728;23.288;2024-02-26T14:16:51;8.37;;;4.90;;
13040;SDS011;6587;42.728;23.288;2024-02-26T14:19:17;7.87;;;4.87;;
13040;SDS011;6587;42.728;23.288;2024-02-26T14:21:46;7.53;;;4.57;;
13040;SDS011;6587;42.728;23.288;2024-02-26T14:24:12;6.70;;;4.50;;
13040;SDS011;6587;42.728;23.288;2024-02-26T14:26:40;6.30;;;4.50;;
13040;SDS011;6587;42.728;23.288;2024-02-26T14:29:07;6.17;;;4.40;;
13040;SDS011;6587;42.728;23.288;2024-02-26T14:31:33;9.83;;;4.80;;
13040;SDS011;6587;42.728;23.288;2024-02-26T14:34:00;7.33;;;4.90;;